createdAt,value
2016-07-14T00:00:44.167Z,22.96
2016-07-14T00:01:44.176Z,22.86
2016-07-14T00:02:44.172Z,22.92
2016-07-14T00:03:44.167Z,22.91
2016-07-14T00:04:44.174Z,22.91
2016-07-14T00:05:44.166Z,22.88
2016-07-14T00:06:44.171Z,22.91
2016-07-14T00:07:44.173Z,22.89
2016-07-14T00:08:44.170Z,22.88
2016-07-14T00:09:44.172Z,22.94
2016-07-14T00:10:44.164Z,22.82
2016-07-14T00:11:44.179Z,22.89
2016-07-14T00:12:44.374Z,22.92
2016-07-14T00:13:44.367Z,22.85
2016-07-14T00:14:44.171Z,22.94
2016-07-14T00:15:44.167Z,22.89
2016-07-14T00:16:44.171Z,22.88
2016-07-14T00:17:44.178Z,23
2016-07-14T00:18:44.171Z,22.97
2016-07-14T00:19:44.168Z,22.94
2016-07-14T00:20:44.167Z,22.97
2016-07-14T00:21:44.167Z,23.01
2016-07-14T00:22:44.169Z,22.97
2016-07-14T00:23:44.366Z,22.91
2016-07-14T00:24:44.172Z,22.94
2016-07-14T00:25:44.166Z,23
2016-07-14T00:26:44.165Z,22.91
2016-07-14T00:27:44.172Z,23
2016-07-14T00:28:44.371Z,23.01
2016-07-14T00:29:44.173Z,22.97
2016-07-14T00:30:44.171Z,22.97
2016-07-14T00:31:44.169Z,23.03
2016-07-14T00:32:44.168Z,22.91
2016-07-14T00:33:44.169Z,22.88
2016-07-14T00:34:44.168Z,22.96
2016-07-14T00:35:44.179Z,22.89
2016-07-14T00:36:44.163Z,22.89
2016-07-14T00:37:44.174Z,22.97
2016-07-14T00:38:44.175Z,22.97
2016-07-14T00:39:44.182Z,22.96
2016-07-14T00:40:44.167Z,22.88
2016-07-14T00:41:44.167Z,22.92
2016-07-14T00:42:44.172Z,22.91
2016-07-14T00:43:44.177Z,22.91
2016-07-14T00:44:44.183Z,22.86
2016-07-14T00:45:44.170Z,22.86
2016-07-14T00:46:44.166Z,22.97
2016-07-14T00:47:44.165Z,22.88
2016-07-14T00:48:44.169Z,22.89
2016-07-14T00:49:44.168Z,22.91
2016-07-14T00:50:44.162Z,22.84
2016-07-14T00:51:44.164Z,22.92
2016-07-14T00:52:44.167Z,22.92
2016-07-14T00:53:44.164Z,22.88
2016-07-14T00:54:44.171Z,22.88
2016-07-14T00:55:44.164Z,22.89
2016-07-14T00:56:44.165Z,22.86
2016-07-14T00:57:44.167Z,22.85
2016-07-14T00:58:44.166Z,22.89
2016-07-14T00:59:44.165Z,22.85
2016-07-14T01:00:44.180Z,22.82
2016-07-14T01:01:44.167Z,22.85
2016-07-14T01:02:44.163Z,22.82
2016-07-14T01:03:44.165Z,22.81
2016-07-14T01:04:44.174Z,22.78
2016-07-14T01:05:44.168Z,22.85
2016-07-14T01:06:44.175Z,22.81
2016-07-14T01:07:44.167Z,22.89
2016-07-14T01:08:44.177Z,22.79
2016-07-14T01:09:44.184Z,22.76
2016-07-14T01:10:44.191Z,22.85
2016-07-14T01:11:44.176Z,22.85
2016-07-14T01:12:44.179Z,22.79
2016-07-14T01:13:44.179Z,22.75
2016-07-14T01:14:44.186Z,22.73
2016-07-14T01:15:44.187Z,22.7
2016-07-14T01:16:44.200Z,22.73
2016-07-14T01:17:44.204Z,22.75
2016-07-14T01:18:44.221Z,22.71
2016-07-14T01:19:44.221Z,22.64
2016-07-14T01:20:44.229Z,22.64
2016-07-14T01:21:44.232Z,22.64
2016-07-14T01:22:44.250Z,22.6
2016-07-14T01:23:44.258Z,22.7
2016-07-14T01:24:44.260Z,22.61
2016-07-14T01:25:44.264Z,22.66
2016-07-14T01:26:44.274Z,22.63
2016-07-14T01:27:44.317Z,22.61
2016-07-14T01:28:44.314Z,22.66
2016-07-14T01:29:44.367Z,22.66
2016-07-14T01:30:44.319Z,22.67
2016-07-14T01:31:44.535Z,22.67
2016-07-14T01:32:44.336Z,22.64
2016-07-14T01:33:44.549Z,22.66
2016-07-14T01:34:44.356Z,22.64
2016-07-14T01:35:44.362Z,22.61
2016-07-14T01:36:44.370Z,22.52
2016-07-14T01:37:44.372Z,22.63
2016-07-14T01:38:44.385Z,22.55
2016-07-14T01:39:44.164Z,22.63
2016-07-14T01:40:44.159Z,22.61
2016-07-14T01:41:44.159Z,22.6
2016-07-14T01:42:44.160Z,22.63
2016-07-14T01:43:44.161Z,22.63
2016-07-14T01:44:44.158Z,22.6
2016-07-14T01:45:44.517Z,22.57
2016-07-14T01:46:44.159Z,22.51
2016-07-14T01:47:44.357Z,22.55
2016-07-14T01:48:44.159Z,22.54
2016-07-14T01:49:44.156Z,22.52
2016-07-14T01:50:44.155Z,22.57
2016-07-14T01:51:44.154Z,22.54
2016-07-14T01:52:44.364Z,22.46
2016-07-14T01:53:44.158Z,22.48
2016-07-14T01:54:44.159Z,22.48
2016-07-14T01:55:44.165Z,22.44
2016-07-14T01:56:44.157Z,22.51
2016-07-14T01:57:44.358Z,22.51
2016-07-14T01:58:44.157Z,22.45
2016-07-14T01:59:44.355Z,22.42
2016-07-14T02:00:44.152Z,22.36
2016-07-14T02:01:44.149Z,22.36
2016-07-14T02:02:44.145Z,22.36
2016-07-14T02:03:44.174Z,22.38
2016-07-14T02:04:44.151Z,22.46
2016-07-14T02:05:44.150Z,22.45
2016-07-14T02:06:44.154Z,22.42
2016-07-14T02:07:44.143Z,22.41
2016-07-14T02:08:44.157Z,22.34
2016-07-14T02:09:44.151Z,22.31
2016-07-14T02:10:44.151Z,22.39
2016-07-14T02:11:44.150Z,22.39
2016-07-14T02:12:44.149Z,22.44
2016-07-14T02:13:44.147Z,22.41
2016-07-14T02:14:44.149Z,22.34
2016-07-14T02:15:44.150Z,22.33
2016-07-14T02:16:44.146Z,22.36
2016-07-14T02:17:44.142Z,22.26
2016-07-14T02:18:44.147Z,22.33
2016-07-14T02:19:44.141Z,22.22
2016-07-14T02:20:44.342Z,22.26
2016-07-14T02:21:44.150Z,22.24
2016-07-14T02:22:44.140Z,22.3
2016-07-14T02:23:44.147Z,22.26
2016-07-14T02:24:44.148Z,22.3
2016-07-14T02:25:44.146Z,22.27
2016-07-14T02:26:44.140Z,22.16
2016-07-14T02:27:44.353Z,22.24
2016-07-14T02:28:44.136Z,22.26
2016-07-14T02:29:44.134Z,22.22
2016-07-14T02:30:44.347Z,22.26
2016-07-14T02:31:44.143Z,22.18
2016-07-14T02:32:44.147Z,22.27
2016-07-14T02:33:44.135Z,22.2
2016-07-14T02:34:44.131Z,22.24
2016-07-14T02:35:44.140Z,22.22
2016-07-14T02:36:44.138Z,22.23
2016-07-14T02:37:44.138Z,22.2
2016-07-14T02:38:44.136Z,22.08
2016-07-14T02:39:44.139Z,22.14
2016-07-14T02:40:44.531Z,22.15
2016-07-14T02:41:44.131Z,22.2
2016-07-14T02:42:44.137Z,22.08
2016-07-14T02:43:44.127Z,22.09
2016-07-14T02:44:44.132Z,22.14
2016-07-14T02:45:44.136Z,22.18
2016-07-14T02:46:44.126Z,22.08
2016-07-14T02:47:44.133Z,22.05
2016-07-14T02:48:44.125Z,22.05
2016-07-14T02:49:44.133Z,22.12
2016-07-14T02:50:44.126Z,22.02
2016-07-14T02:51:44.124Z,22.04
2016-07-14T02:52:44.131Z,22.04
2016-07-14T02:53:44.128Z,22.09
2016-07-14T02:54:44.125Z,21.97
2016-07-14T02:55:44.128Z,21.99
2016-07-14T02:56:44.129Z,22.02
2016-07-14T02:57:44.126Z,22
2016-07-14T02:58:44.122Z,22
2016-07-14T02:59:44.126Z,21.96
2016-07-14T03:00:44.321Z,22.02
2016-07-14T03:01:44.120Z,21.97
2016-07-14T03:02:44.130Z,22
2016-07-14T03:03:44.113Z,21.97
2016-07-14T03:04:44.120Z,21.97
2016-07-14T03:05:44.113Z,21.93
2016-07-14T03:06:44.121Z,22.02
2016-07-14T03:07:44.118Z,22.02
2016-07-14T03:08:44.121Z,21.94
2016-07-14T03:09:44.121Z,21.96
2016-07-14T03:10:44.122Z,21.86
2016-07-14T03:11:44.115Z,21.89
2016-07-14T03:12:44.316Z,21.86
2016-07-14T03:13:44.116Z,21.94
2016-07-14T03:14:44.115Z,21.9
2016-07-14T03:15:44.314Z,21.9
2016-07-14T03:16:44.113Z,21.9
2016-07-14T03:17:44.111Z,21.89
2016-07-14T03:18:44.113Z,21.93
2016-07-14T03:19:44.109Z,21.83
2016-07-14T03:20:44.108Z,21.92
2016-07-14T03:21:44.107Z,21.89
2016-07-14T03:22:44.107Z,21.85
2016-07-14T03:23:44.513Z,21.77
2016-07-14T03:24:44.104Z,21.83
2016-07-14T03:25:44.305Z,21.85
2016-07-14T03:26:44.112Z,21.86
2016-07-14T03:27:44.103Z,21.76
2016-07-14T03:28:44.313Z,21.71
2016-07-14T03:29:44.106Z,21.73
2016-07-14T03:30:44.102Z,21.83
2016-07-14T03:31:44.098Z,21.86
2016-07-14T03:32:44.097Z,21.74
2016-07-14T03:33:44.097Z,21.78
2016-07-14T03:34:44.099Z,21.67
2016-07-14T03:35:44.101Z,21.73
2016-07-14T03:36:44.096Z,21.74
2016-07-14T03:37:44.097Z,21.7
2016-07-14T03:38:44.095Z,21.7
2016-07-14T03:39:44.104Z,21.67
2016-07-14T03:40:44.089Z,21.64
2016-07-14T03:41:44.097Z,21.77
2016-07-14T03:42:44.099Z,21.68
2016-07-14T03:43:44.095Z,21.66
2016-07-14T03:44:44.290Z,21.71
2016-07-14T03:45:44.092Z,21.7
2016-07-14T03:46:44.086Z,21.64
2016-07-14T03:47:44.291Z,21.73
2016-07-14T03:48:44.088Z,21.67
2016-07-14T03:49:44.084Z,21.68
2016-07-14T03:50:44.088Z,21.68
2016-07-14T03:51:44.093Z,21.67
2016-07-14T03:52:44.084Z,21.64
2016-07-14T03:53:44.089Z,21.73
2016-07-14T03:54:44.078Z,21.7
2016-07-14T03:55:44.279Z,21.7
2016-07-14T03:56:44.082Z,21.61
2016-07-14T03:57:44.078Z,21.67
2016-07-14T03:58:44.078Z,21.56
2016-07-14T03:59:44.076Z,21.66
2016-07-14T04:00:44.078Z,21.61
2016-07-14T04:01:44.080Z,21.62
2016-07-14T04:02:44.070Z,21.61
2016-07-14T04:03:44.074Z,21.61
2016-07-14T04:04:44.069Z,21.58
2016-07-14T04:05:44.070Z,21.64
2016-07-14T04:06:44.070Z,21.62
2016-07-14T04:07:44.268Z,21.56
2016-07-14T04:08:44.064Z,21.51
2016-07-14T04:09:44.276Z,21.49
2016-07-14T04:10:44.075Z,21.48
2016-07-14T04:11:44.064Z,21.51
2016-07-14T04:12:44.064Z,21.52
2016-07-14T04:13:44.066Z,21.59
2016-07-14T04:14:44.067Z,21.48
2016-07-14T04:15:44.062Z,21.52
2016-07-14T04:16:44.061Z,21.49
2016-07-14T04:17:44.062Z,21.51
2016-07-14T04:18:44.257Z,21.51
2016-07-14T04:19:44.064Z,21.43
2016-07-14T04:20:44.265Z,21.48
2016-07-14T04:21:44.252Z,21.45
2016-07-14T04:22:44.054Z,21.46
2016-07-14T04:23:44.053Z,21.43
2016-07-14T04:24:44.052Z,21.48
2016-07-14T04:25:44.052Z,21.43
2016-07-14T04:26:44.040Z,21.46
2016-07-14T04:27:44.049Z,21.45
2016-07-14T04:28:44.049Z,21.43
2016-07-14T04:29:44.042Z,21.41
2016-07-14T04:30:44.050Z,21.52
2016-07-14T04:31:44.048Z,21.48
2016-07-14T04:32:44.048Z,21.36
2016-07-14T04:33:44.054Z,21.48
2016-07-14T04:34:44.044Z,21.41
2016-07-14T04:35:44.242Z,21.4
2016-07-14T04:36:44.237Z,21.36
2016-07-14T04:37:44.040Z,21.34
2016-07-14T04:38:44.039Z,21.4
2016-07-14T04:39:44.040Z,21.38
2016-07-14T04:40:44.038Z,21.41
2016-07-14T04:41:44.032Z,21.31
2016-07-14T04:42:44.041Z,21.33
2016-07-14T04:43:44.037Z,21.36
2016-07-14T04:44:44.032Z,21.34
2016-07-14T04:45:44.030Z,21.36
2016-07-14T04:46:44.039Z,21.36
2016-07-14T04:47:44.032Z,21.33
2016-07-14T04:48:44.034Z,21.36
2016-07-14T04:49:44.022Z,21.28
2016-07-14T04:50:44.024Z,21.22
2016-07-14T04:51:44.028Z,21.27
2016-07-14T04:52:44.027Z,21.3
2016-07-14T04:53:44.032Z,21.3
2016-07-14T04:54:44.024Z,21.25
2016-07-14T04:55:44.020Z,21.22
2016-07-14T04:56:44.015Z,21.31
2016-07-14T04:57:44.218Z,21.25
2016-07-14T04:58:44.016Z,21.22
2016-07-14T04:59:44.217Z,21.3
2016-07-14T05:00:44.017Z,21.21
2016-07-14T05:01:44.011Z,21.28
2016-07-14T05:02:44.217Z,21.34
2016-07-14T05:03:44.018Z,21.28
2016-07-14T05:04:44.206Z,21.28
2016-07-14T05:05:44.210Z,21.28
2016-07-14T05:06:44.008Z,21.31
2016-07-14T05:07:44.002Z,21.09
2016-07-14T05:08:44.005Z,21.13
2016-07-14T05:09:44.202Z,21.19
2016-07-14T05:10:43.997Z,21.25
2016-07-14T05:11:43.998Z,21.16
2016-07-14T05:12:44.005Z,21.12
2016-07-14T05:13:44.210Z,21.16
2016-07-14T05:14:44.000Z,21.19
2016-07-14T05:15:43.998Z,21.16
2016-07-14T05:16:44.196Z,21.22
2016-07-14T05:17:43.994Z,21.21
2016-07-14T05:18:44.193Z,21.23
2016-07-14T05:19:43.990Z,21.18
2016-07-14T05:20:43.992Z,21.18
2016-07-14T05:21:43.987Z,21.19
2016-07-14T05:22:43.988Z,21.19
2016-07-14T05:23:43.987Z,21.16
2016-07-14T05:24:43.990Z,21.16
2016-07-14T05:25:43.983Z,21.06
2016-07-14T05:26:43.986Z,21.18
2016-07-14T05:27:43.980Z,21.21
2016-07-14T05:28:43.982Z,21.08
2016-07-14T05:29:43.983Z,21.06
2016-07-14T05:30:43.981Z,21.11
2016-07-14T05:31:44.170Z,21.08
2016-07-14T05:32:43.986Z,21.09
2016-07-14T05:33:44.178Z,21.06
2016-07-14T05:34:43.974Z,21.03
2016-07-14T05:35:43.968Z,21.06
2016-07-14T05:36:43.972Z,21.11
2016-07-14T05:37:43.971Z,21.06
2016-07-14T05:38:43.964Z,21.06
2016-07-14T05:39:43.962Z,21.12
2016-07-14T05:40:43.965Z,21.06
2016-07-14T05:41:43.958Z,21.12
2016-07-14T05:42:43.966Z,20.98
2016-07-14T05:43:43.962Z,21.11
2016-07-14T05:44:43.963Z,21.01
2016-07-14T05:45:43.961Z,21.04
2016-07-14T05:46:43.955Z,21.06
2016-07-14T05:47:43.958Z,21.09
2016-07-14T05:48:43.954Z,21.04
2016-07-14T05:49:44.158Z,21.01
2016-07-14T05:50:43.952Z,21.03
2016-07-14T05:51:43.954Z,21.04
2016-07-14T05:52:43.946Z,21.03
2016-07-14T05:53:43.944Z,21.09
2016-07-14T05:54:43.942Z,21.01
2016-07-14T05:55:43.938Z,21.04
2016-07-14T05:56:43.950Z,21
2016-07-14T05:57:43.943Z,21
2016-07-14T05:58:43.930Z,21.06
2016-07-14T05:59:43.943Z,21.08
2016-07-14T06:00:43.945Z,21.08
2016-07-14T06:01:43.930Z,21.04
2016-07-14T06:02:43.942Z,21.03
2016-07-14T06:03:43.931Z,20.96
2016-07-14T06:04:43.929Z,21.01
2016-07-14T06:05:43.931Z,21.06
2016-07-14T06:06:43.934Z,21
2016-07-14T06:07:43.930Z,21.01
2016-07-14T06:08:43.930Z,21.03
2016-07-14T06:09:44.129Z,21.03
2016-07-14T06:10:43.928Z,20.94
2016-07-14T06:11:43.923Z,21.11
2016-07-14T06:12:43.927Z,21.08
2016-07-14T06:13:43.920Z,21.06
2016-07-14T06:14:43.914Z,21.03
2016-07-14T06:15:43.916Z,21.03
2016-07-14T06:16:43.912Z,20.98
2016-07-14T06:17:43.905Z,21.09
2016-07-14T06:18:43.906Z,21.04
2016-07-14T06:19:43.908Z,21.01
2016-07-14T06:20:43.917Z,21.01
2016-07-14T06:21:43.922Z,21.01
2016-07-14T06:22:43.906Z,21.09
2016-07-14T06:23:44.108Z,21.01
2016-07-14T06:25:43.924Z,21.01
2016-07-14T06:26:43.903Z,21.09
2016-07-14T06:27:43.901Z,21.09
2016-07-14T06:28:44.098Z,21.04
2016-07-14T06:29:43.893Z,21.03
2016-07-14T06:30:44.098Z,21.13
2016-07-14T06:31:43.894Z,21.08
2016-07-14T06:32:43.898Z,21.13
2016-07-14T06:33:43.899Z,21.03
2016-07-14T06:34:43.891Z,21.08
2016-07-14T06:35:43.892Z,21.08
2016-07-14T06:36:43.892Z,21.15
2016-07-14T06:37:43.883Z,21.19
2016-07-14T06:38:43.884Z,21.19
2016-07-14T06:39:43.889Z,21.15
2016-07-14T06:40:44.078Z,21.12
2016-07-14T06:41:43.887Z,21.19
2016-07-14T06:42:43.881Z,21.19
2016-07-14T06:43:43.885Z,21.27
2016-07-14T06:44:43.881Z,21.21
2016-07-14T06:45:43.874Z,21.22
2016-07-14T06:46:43.872Z,21.25
2016-07-14T06:47:43.870Z,21.23
2016-07-14T06:48:43.870Z,21.3
2016-07-14T06:49:43.867Z,21.28
2016-07-14T06:50:43.865Z,21.34
2016-07-14T06:51:43.865Z,21.33
2016-07-14T06:52:44.066Z,21.36
2016-07-14T06:53:43.866Z,21.36
2016-07-14T06:54:43.863Z,21.53
2016-07-14T06:55:43.860Z,21.41
2016-07-14T06:56:43.859Z,21.51
2016-07-14T06:57:43.859Z,21.56
2016-07-14T06:58:43.849Z,21.52
2016-07-14T06:59:43.853Z,21.56
2016-07-14T07:00:43.853Z,21.51
2016-07-14T07:01:43.849Z,21.52
2016-07-14T07:02:43.852Z,21.52
2016-07-14T07:03:44.047Z,21.48
2016-07-14T07:04:43.847Z,21.53
2016-07-14T07:05:43.849Z,21.59
2016-07-14T07:06:43.850Z,21.67
2016-07-14T07:07:43.843Z,21.64
2016-07-14T07:08:43.834Z,21.59
2016-07-14T07:09:43.841Z,21.62
2016-07-14T07:10:43.841Z,21.67
2016-07-14T07:11:43.834Z,21.67
2016-07-14T07:12:43.842Z,21.77
2016-07-14T07:13:43.835Z,21.73
2016-07-14T07:14:43.831Z,21.74
2016-07-14T07:15:43.832Z,21.74
2016-07-14T07:16:43.827Z,21.76
2016-07-14T07:17:43.831Z,21.78
2016-07-14T07:18:44.022Z,21.7
2016-07-14T07:19:43.817Z,21.78
2016-07-14T07:20:43.828Z,21.8
2016-07-14T07:21:43.825Z,21.85
2016-07-14T07:22:43.827Z,21.82
2016-07-14T07:23:43.820Z,21.9
2016-07-14T07:24:43.825Z,21.89
2016-07-14T07:25:44.030Z,21.96
2016-07-14T07:26:43.816Z,21.9
2016-07-14T07:27:43.816Z,21.99
2016-07-14T07:28:43.823Z,21.94
2016-07-14T07:29:43.814Z,21.97
2016-07-14T07:30:44.017Z,21.94
2016-07-14T07:31:43.816Z,21.9
2016-07-14T07:32:43.806Z,21.93
2016-07-14T07:33:43.811Z,21.94
2016-07-14T07:34:43.805Z,22.04
2016-07-14T07:35:43.808Z,21.97
2016-07-14T07:36:43.804Z,22.05
2016-07-14T07:37:43.803Z,22
2016-07-14T07:38:43.803Z,22.12
2016-07-14T07:39:44.005Z,22.08
2016-07-14T07:40:43.797Z,22.09
2016-07-14T07:41:44.001Z,22.15
2016-07-14T07:42:43.804Z,22.11
2016-07-14T07:43:43.795Z,22.14
2016-07-14T07:44:43.799Z,22.14
2016-07-14T07:45:43.798Z,22.11
2016-07-14T07:46:43.792Z,22.18
2016-07-14T07:47:43.785Z,22.18
2016-07-14T07:48:43.794Z,22.23
2016-07-14T07:49:43.793Z,22.18
2016-07-14T07:50:43.790Z,22.22
2016-07-14T07:51:43.796Z,22.15
2016-07-14T07:52:43.988Z,22.23
2016-07-14T07:53:43.790Z,22.2
2016-07-14T07:54:43.787Z,22.29
2016-07-14T07:55:43.784Z,22.26
2016-07-14T07:56:43.780Z,22.3
2016-07-14T07:57:43.784Z,22.27
2016-07-14T07:58:43.778Z,22.23
2016-07-14T07:59:43.780Z,22.24
2016-07-14T08:00:43.780Z,22.26
2016-07-14T08:01:43.770Z,22.15
2016-07-14T08:02:43.764Z,22.18
2016-07-14T08:03:43.773Z,22.2
2016-07-14T08:04:43.976Z,22.26
2016-07-14T08:05:43.768Z,22.26
2016-07-14T08:06:43.779Z,22.24
2016-07-14T08:07:43.768Z,22.26
2016-07-14T08:08:43.771Z,22.29
2016-07-14T08:09:43.769Z,22.27
2016-07-14T08:10:43.771Z,22.22
2016-07-14T08:11:43.775Z,22.31
2016-07-14T08:12:43.768Z,22.24
2016-07-14T08:13:43.767Z,22.29
2016-07-14T08:14:43.766Z,22.29
2016-07-14T08:15:43.765Z,22.3
2016-07-14T08:16:43.962Z,22.31
2016-07-14T08:17:43.759Z,22.42
2016-07-14T08:18:43.754Z,22.45
2016-07-14T08:19:43.760Z,22.45
2016-07-14T08:20:43.756Z,22.38
2016-07-14T08:21:43.752Z,22.42
2016-07-14T08:22:43.753Z,22.34
2016-07-14T08:23:43.750Z,22.42
2016-07-14T08:24:43.752Z,22.34
2016-07-14T08:25:43.751Z,22.38
2016-07-14T08:26:43.750Z,22.33
2016-07-14T08:27:43.743Z,22.36
2016-07-14T08:28:43.743Z,22.44
2016-07-14T08:29:43.749Z,22.46
2016-07-14T08:30:43.750Z,22.48
2016-07-14T08:31:43.747Z,22.49
2016-07-14T08:32:43.763Z,22.55
2016-07-14T08:33:43.745Z,22.48
2016-07-14T08:34:43.943Z,22.52
2016-07-14T08:35:43.751Z,22.46
2016-07-14T08:36:43.740Z,22.45
2016-07-14T08:37:43.743Z,22.49
2016-07-14T08:38:43.742Z,22.52
2016-07-14T08:39:43.730Z,22.55
2016-07-14T08:40:43.736Z,22.44
2016-07-14T08:41:43.744Z,22.54
2016-07-14T08:42:43.728Z,22.49
2016-07-14T08:43:43.728Z,22.51
2016-07-14T08:44:43.722Z,22.51
2016-07-14T08:45:43.731Z,22.55
2016-07-14T08:46:43.734Z,22.45
2016-07-14T08:47:43.732Z,22.55
2016-07-14T08:48:43.729Z,22.48
2016-07-14T08:49:43.730Z,22.55
2016-07-14T08:50:43.721Z,22.55
2016-07-14T08:51:43.727Z,22.52
2016-07-14T08:52:43.724Z,22.54
2016-07-14T08:53:43.726Z,22.46
2016-07-14T08:54:43.727Z,22.48
2016-07-14T08:55:43.722Z,22.45
2016-07-14T08:56:43.723Z,22.52
2016-07-14T08:57:43.920Z,22.48
2016-07-14T08:58:43.926Z,22.57
2016-07-14T08:59:43.717Z,22.52
2016-07-14T09:00:43.715Z,22.52
2016-07-14T09:01:43.914Z,22.51
2016-07-14T09:02:43.723Z,22.51
2016-07-14T09:03:43.718Z,22.46
2016-07-14T09:04:43.712Z,22.52
2016-07-14T09:05:43.711Z,22.54
2016-07-14T09:06:43.707Z,22.49
2016-07-14T09:07:43.710Z,22.49
2016-07-14T09:08:43.707Z,22.45
2016-07-14T09:09:43.715Z,22.55
2016-07-14T09:10:43.709Z,22.57
2016-07-14T09:11:43.706Z,22.49
2016-07-14T09:12:43.702Z,22.52
2016-07-14T09:13:43.704Z,22.54
2016-07-14T09:14:43.709Z,22.48
2016-07-14T09:15:43.704Z,22.38
2016-07-14T09:16:43.705Z,22.39
2016-07-14T09:17:43.718Z,22.38
2016-07-14T09:18:43.697Z,22.41
2016-07-14T09:19:43.692Z,22.3
2016-07-14T09:20:43.699Z,22.39
2016-07-14T09:21:43.694Z,22.39
2016-07-14T09:22:43.719Z,22.34
2016-07-14T09:23:43.699Z,22.38
2016-07-14T09:24:43.691Z,22.41
2016-07-14T09:25:43.693Z,22.48
2016-07-14T09:26:43.685Z,22.38
2016-07-14T09:27:43.682Z,22.41
2016-07-14T09:28:43.690Z,22.34
2016-07-14T09:29:43.683Z,22.39
2016-07-14T09:30:43.686Z,22.39
2016-07-14T09:31:43.896Z,22.24
2016-07-14T09:32:43.890Z,22.44
2016-07-14T09:33:43.683Z,22.29
2016-07-14T09:34:43.892Z,22.3
2016-07-14T09:35:43.687Z,22.29
2016-07-14T09:36:43.682Z,22.24
2016-07-14T09:37:43.683Z,22.26
2016-07-14T09:38:43.679Z,22.31
2016-07-14T09:39:43.683Z,22.27
2016-07-14T09:40:43.687Z,22.24
2016-07-14T09:41:43.883Z,22.26
2016-07-14T09:42:43.682Z,22.2
2016-07-14T09:43:43.676Z,22.24
2016-07-14T09:44:43.678Z,22.27
2016-07-14T09:45:43.876Z,22.29
2016-07-14T09:46:43.873Z,22.23
2016-07-14T09:47:43.667Z,22.26
2016-07-14T09:48:43.669Z,22.26
2016-07-14T09:49:43.672Z,22.22
2016-07-14T09:50:43.872Z,22.22
2016-07-14T09:51:43.665Z,22.26
2016-07-14T09:52:43.872Z,22.26
2016-07-14T09:53:43.666Z,22.23
2016-07-14T09:54:43.667Z,22.22
2016-07-14T09:55:43.658Z,22.15
2016-07-14T09:56:43.667Z,22.23
2016-07-14T09:57:43.666Z,22.12
2016-07-14T09:58:43.865Z,22.18
2016-07-14T09:59:43.864Z,22.2
2016-07-14T10:00:43.657Z,22.18
2016-07-14T10:01:43.659Z,22.18
2016-07-14T10:02:43.656Z,22.12
2016-07-14T10:03:43.661Z,22.15
2016-07-14T10:04:43.660Z,22.12
2016-07-14T10:05:43.660Z,22.16
2016-07-14T10:06:43.659Z,22.14
2016-07-14T10:07:43.650Z,22.11
2016-07-14T10:08:43.655Z,22.12
2016-07-14T10:09:43.655Z,22.11
2016-07-14T10:10:43.658Z,22.04
2016-07-14T10:11:43.653Z,22.12
2016-07-14T10:12:43.647Z,22.05
2016-07-14T10:13:43.647Z,22.09
2016-07-14T10:14:43.650Z,22.09
2016-07-14T10:15:43.647Z,22.18
2016-07-14T10:16:43.645Z,22.09
2016-07-14T10:17:43.637Z,22.16
2016-07-14T10:18:43.650Z,22.12
2016-07-14T10:19:43.654Z,22.18
2016-07-14T10:20:43.647Z,22.14
2016-07-14T10:21:43.647Z,22.2
2016-07-14T10:22:43.642Z,22.15
2016-07-14T10:23:43.639Z,22.15
2016-07-14T10:24:43.642Z,22.11
2016-07-14T10:25:43.643Z,22.14
2016-07-14T10:26:43.641Z,22.22
2016-07-14T10:27:43.635Z,22.22
2016-07-14T10:28:43.632Z,22.2
2016-07-14T10:29:43.637Z,22.16
2016-07-14T10:30:43.836Z,22.18
2016-07-14T10:31:43.691Z,22.23
2016-07-14T10:32:43.637Z,22.26
2016-07-14T10:33:43.637Z,22.2
2016-07-14T10:34:43.631Z,22.24
2016-07-14T10:35:43.630Z,22.18
2016-07-14T10:36:43.631Z,22.23
2016-07-14T10:37:43.626Z,22.22
2016-07-14T10:38:43.635Z,22.27
2016-07-14T10:39:43.634Z,22.27
2016-07-14T10:40:43.629Z,22.27
2016-07-14T10:41:43.629Z,22.3
2016-07-14T10:42:43.623Z,22.24
2016-07-14T10:43:43.630Z,22.24
2016-07-14T10:44:43.632Z,22.3
2016-07-14T10:45:43.636Z,22.27
2016-07-14T10:46:43.828Z,22.29
2016-07-14T10:47:43.621Z,22.2
2016-07-14T10:48:43.620Z,22.27
2016-07-14T10:49:43.619Z,22.16
2016-07-14T10:50:43.621Z,22.26
2016-07-14T10:51:43.818Z,22.27
2016-07-14T10:52:43.619Z,22.26
2016-07-14T10:53:43.631Z,22.27
2016-07-14T10:54:43.619Z,22.31
2016-07-14T10:55:43.620Z,22.29
2016-07-14T10:56:43.615Z,22.23
2016-07-14T10:57:43.620Z,22.33
2016-07-14T10:58:43.621Z,22.26
2016-07-14T10:59:43.614Z,22.29
2016-07-14T11:00:43.607Z,22.24
2016-07-14T11:01:43.610Z,22.27
2016-07-14T11:02:43.612Z,22.27
2016-07-14T11:03:43.611Z,22.3
2016-07-14T11:04:43.607Z,22.24
2016-07-14T11:05:43.612Z,22.31
2016-07-14T11:06:43.609Z,22.29
2016-07-14T11:07:43.611Z,22.27
2016-07-14T11:08:43.809Z,22.29
2016-07-14T11:09:43.601Z,22.39
2016-07-14T11:10:43.600Z,22.3
2016-07-14T11:11:43.803Z,22.26
2016-07-14T11:12:43.606Z,22.29
2016-07-14T11:13:43.606Z,22.23
2016-07-14T11:14:43.606Z,22.34
2016-07-14T11:15:43.610Z,22.41
2016-07-14T11:16:43.601Z,22.38
2016-07-14T11:17:43.597Z,22.31
2016-07-14T11:18:43.602Z,22.36
2016-07-14T11:19:43.598Z,22.38
2016-07-14T11:20:43.602Z,22.36
2016-07-14T11:21:43.601Z,22.38
2016-07-14T11:22:43.594Z,22.34
2016-07-14T11:23:43.594Z,22.41
2016-07-14T11:24:43.605Z,22.46
2016-07-14T11:25:43.614Z,22.46
2016-07-14T11:26:43.594Z,22.46
2016-07-14T11:27:43.595Z,22.44
2016-07-14T11:28:43.592Z,22.54
2016-07-14T11:29:43.588Z,22.45
2016-07-14T11:30:43.586Z,22.51
2016-07-14T11:31:43.591Z,22.52
2016-07-14T11:32:43.592Z,22.49
2016-07-14T11:33:43.589Z,22.6
2016-07-14T11:34:43.589Z,22.54
2016-07-14T11:35:43.584Z,22.51
2016-07-14T11:36:43.586Z,22.51
2016-07-14T11:37:43.589Z,22.55
2016-07-14T11:38:43.789Z,22.59
2016-07-14T11:39:43.795Z,22.6
2016-07-14T11:40:43.594Z,22.54
2016-07-14T11:41:43.582Z,22.54
2016-07-14T11:42:43.588Z,22.49
2016-07-14T11:43:43.585Z,22.6
2016-07-14T11:44:43.580Z,22.55
2016-07-14T11:45:43.578Z,22.55
2016-07-14T11:46:43.577Z,22.59
2016-07-14T11:47:43.771Z,22.64
2016-07-14T11:48:43.584Z,22.54
2016-07-14T11:49:43.571Z,22.51
2016-07-14T11:50:43.578Z,22.64
2016-07-14T11:51:43.582Z,22.55
2016-07-14T11:52:43.568Z,22.52
2016-07-14T11:53:43.582Z,22.51
2016-07-14T11:54:43.575Z,22.55
2016-07-14T11:55:43.575Z,22.51
2016-07-14T11:56:43.582Z,22.55
2016-07-14T11:57:43.580Z,22.51
2016-07-14T11:58:43.575Z,22.49
2016-07-14T11:59:43.567Z,22.52
2016-07-14T12:00:43.572Z,22.54
2016-07-14T12:01:43.773Z,22.59
2016-07-14T12:02:43.580Z,22.59
2016-07-14T12:03:43.572Z,22.6
2016-07-14T12:04:43.566Z,22.6
2016-07-14T12:05:43.580Z,22.55
2016-07-14T12:06:43.570Z,22.61
2016-07-14T12:08:43.566Z,22.67
2016-07-14T12:09:43.577Z,22.64
2016-07-14T12:10:43.566Z,22.63
2016-07-14T12:11:43.566Z,22.59
2016-07-14T12:12:43.566Z,22.59
2016-07-14T12:13:43.566Z,22.6
2016-07-14T12:14:43.561Z,22.69
2016-07-14T12:15:43.561Z,22.64
2016-07-14T12:16:43.567Z,22.66
2016-07-14T12:17:43.553Z,22.7
2016-07-14T12:18:43.765Z,22.61
2016-07-14T12:19:43.564Z,22.42
2016-07-14T12:20:43.556Z,22.46
2016-07-14T12:21:43.557Z,22.52
2016-07-14T12:22:43.568Z,22.67
2016-07-14T12:23:43.555Z,22.69
2016-07-14T12:24:43.757Z,22.55
2016-07-14T12:25:43.562Z,22.44
2016-07-14T12:26:43.550Z,22.54
2016-07-14T12:27:43.564Z,22.69
2016-07-14T12:28:43.549Z,22.66
2016-07-14T12:29:43.552Z,22.73
2016-07-14T12:30:43.556Z,22.73
2016-07-14T12:31:43.544Z,22.67
2016-07-14T12:32:43.548Z,22.61
2016-07-14T12:33:43.549Z,22.57
2016-07-14T12:34:43.553Z,22.54
2016-07-14T12:35:43.549Z,22.59
2016-07-14T12:36:43.543Z,22.52
2016-07-14T12:37:43.547Z,22.52
2016-07-14T12:38:43.549Z,22.51
2016-07-14T12:39:43.549Z,22.6
2016-07-14T12:40:43.546Z,22.54
2016-07-14T12:41:43.546Z,22.59
2016-07-14T12:42:43.544Z,22.54
2016-07-14T12:43:43.666Z,22.6
2016-07-14T12:44:43.541Z,22.73
2016-07-14T12:45:43.536Z,22.57
2016-07-14T12:46:43.541Z,22.61
2016-07-14T12:47:43.537Z,22.57
2016-07-14T12:48:43.534Z,22.67
2016-07-14T12:49:43.539Z,22.66
2016-07-14T12:50:43.547Z,22.69
2016-07-14T12:51:43.537Z,22.73
2016-07-14T12:52:43.743Z,22.6
2016-07-14T12:53:43.536Z,22.52
2016-07-14T12:54:43.553Z,22.57
2016-07-14T12:55:43.533Z,22.59
2016-07-14T12:56:43.945Z,22.54
2016-07-14T12:57:43.804Z,22.52